Status Flugplatz

Der Flugplatz ist offen
PPR Regelung ! PJE !!!

123.15 MHz
RWY 05/23

flüger beizli - Öffnungszeiten
Freitag ab 16:00
Samstag +Sonntag ab 11:00
Bei schönem Wetter öffnen wir früher! Tel.: 079 234 07 74

Herzlich willkommen auf der Homepage des Flugplatz Biel-Kappelen

Wir freuen uns über Ihren Besuch auf unserem schönen Flugplatz im Berner Seeland. Ob zu Fuss, per Velo, Motorrad, Auto oder Flugzeug Sie sind uns jederzeit herzlich willkommen. 


Wie werde ich Pilot?

Infoabend der Flugschule Seeland für Interessierte.

Wie läuft die Ausbildung zum Piloten ab?
Was kostet die Ausbildung?
Welche Voraussetzungen muss ich erfüllen?
Wie lange dauert die Ausbildung?

...und viele weitere Antworten werden Sie erhalten.

Freitag, 27. Oktober 2017 20:00 Flugplatz Biel-Kappelen

Anmeldung unter Diese E-Mail-Adresse ist vor Spambots geschützt! Zur Anzeige muss JavaScript eingeschaltet sein!

 

 


 

Wetter Kappelen

 


 

[source: ADDS]
METAR
LSZG 240120Z AUTO 06001KT 6000 NSC 08/07 Q1027 =
TAF
SR / SS: 06:04 / 16:28 UTC ( 2017-10-24)

 


 

Besucherzähler

HeuteHeute9
Seit BeginnSeit Beginn100269
Guests 1

Flugplatz Biel-Kappelen LSZP - 123.15MHz - 032 384 46 84

Email: Diese E-Mail-Adresse ist vor Spambots geschützt! Zur Anzeige muss JavaScript eingeschaltet sein!
www.lszp.ch
2017 © by mb

Zum Anfang